Time;durP1;ratioP1;P1;durP2;ratioP2;P2;SDS_P1;SDS_P2;PMS_P1;PMS_P2;Temp;Humidity;BMP_temperature;BMP_pressure;BME280_temperature;BME280_humidity;BME280_pressure;Samples;Min_cycle;Max_cycle;Signal;HPM_P1;HPM_P2
2022/03/31 00:00:00;;;;;;;9.55;2.20;;;3.40;99.90;;;;;;4912746;29;20051;-82
2022/03/31 00:02:26;;;;;;;8.65;1.77;;;3.70;99.90;;;;;;4913384;29;20048;-81
2022/03/31 00:04:52;;;;;;;6.13;1.88;;;3.40;99.90;;;;;;4882163;29;20071;-82
2022/03/31 00:07:17;;;;;;;4.28;2.03;;;3.40;99.90;;;;;;4913202;29;20107;-82
2022/03/31 00:09:43;;;;;;;4.25;1.90;;;3.40;99.90;;;;;;4882531;29;20052;-82
2022/03/31 00:12:09;;;;;;;6.32;2.10;;;3.40;99.90;;;;;;4896089;29;20452;-81
2022/03/31 00:14:35;;;;;;;3.45;1.67;;;3.40;99.90;;;;;;4913729;29;20056;-82
2022/03/31 00:17:01;;;;;;;4.07;1.95;;;3.40;99.90;;;;;;4897583;29;20407;-82
2022/03/31 00:19:26;;;;;;;5.25;1.70;;;3.40;99.90;;;;;;4912262;29;20062;-82
2022/03/31 00:21:52;;;;;;;5.30;1.73;;;3.40;99.90;;;;;;4906382;29;20147;-82
2022/03/31 00:24:18;;;;;;;5.30;1.88;;;3.50;99.90;;;;;;4886268;29;20055;-82
2022/03/31 00:26:44;;;;;;;7.00;1.90;;;3.30;99.90;;;;;;4894916;29;20049;-82
2022/03/31 00:29:09;;;;;;;9.13;1.90;;;3.30;99.90;;;;;;4862787;29;20044;-82
2022/03/31 00:31:35;;;;;;;5.55;1.70;;;3.40;99.90;;;;;;4895577;29;20083;-82
2022/03/31 00:34:02;;;;;;;8.38;1.90;;;3.50;99.90;;;;;;4892866;29;20072;-82
2022/03/31 00:36:27;;;;;;;8.52;1.55;;;3.90;99.90;;;;;;4888921;29;20055;-82
2022/03/31 00:41:38;;;;;;;6.20;1.67;;;3.30;99.90;;;;;;4896850;29;20056;-82
2022/03/31 00:44:05;;;;;;;4.80;1.63;;;3.20;99.90;;;;;;4900409;29;20059;-82
2022/03/31 00:46:31;;;;;;;2.80;1.38;;;3.20;99.90;;;;;;4897938;29;20053;-82
2022/03/31 00:48:57;;;;;;;4.80;1.38;;;3.20;99.90;;;;;;4881559;29;20394;-82
2022/03/31 00:51:23;;;;;;;5.35;1.58;;;3.30;99.90;;;;;;4917022;29;20060;-81
2022/03/31 00:53:49;;;;;;;10.73;1.90;;;4.00;99.90;;;;;;4885215;29;20068;-82
2022/03/31 00:56:18;;;;;;;5.22;1.60;;;3.10;99.90;;;;;;4916226;29;20123;-82
2022/03/31 00:58:44;;;;;;;6.10;1.45;;;3.00;99.90;;;;;;4915514;29;20099;-81
2022/03/31 01:01:13;;;;;;;8.98;1.75;;;3.00;99.90;;;;;;4913645;29;20059;-82
2022/03/31 01:03:39;;;;;;;3.20;1.50;;;3.90;99.90;;;;;;4915959;29;20064;-82
2022/03/31 01:06:05;;;;;;;;;;;2.90;99.90;;;;;;4916784;29;20056;-82
2022/03/31 01:08:31;;;;;;;5.22;1.60;;;3.50;99.90;;;;;;4907159;29;19931;-82
2022/03/31 01:10:58;;;;;;;5.97;1.60;;;2.80;99.90;;;;;;4850673;29;20091;-82
2022/03/31 01:13:24;;;;;;;10.73;2.47;;;2.70;99.90;;;;;;4896624;29;20056;-82
2022/03/31 01:15:49;;;;;;;7.32;1.90;;;2.60;99.90;;;;;;4882464;29;20041;-82
2022/03/31 01:18:15;;;;;;;8.30;1.80;;;2.60;99.90;;;;;;4897336;29;20116;-81
2022/03/31 01:20:42;;;;;;;7.55;1.90;;;3.00;99.90;;;;;;4866361;29;20106;-81
2022/03/31 01:23:14;;;;;;;5.95;1.80;;;2.50;99.90;;;;;;4866106;29;20104;-82
2022/03/31 01:25:40;;;;;;;7.55;2.00;;;2.50;99.90;;;;;;4882152;29;20087;-81
2022/03/31 01:28:06;;;;;;;3.95;1.70;;;2.80;99.90;;;;;;4887913;29;20072;-82
2022/03/31 01:30:32;;;;;;;4.63;1.65;;;2.50;99.90;;;;;;4885181;29;20044;-82
2022/03/31 01:32:58;;;;;;;4.70;1.65;;;2.50;99.90;;;;;;4908913;29;20048;-82
2022/03/31 01:35:23;;;;;;;5.80;2.22;;;2.60;99.90;;;;;;4899399;29;20050;-82
2022/03/31 01:37:49;;;;;;;4.05;2.00;;;2.60;99.90;;;;;;4916138;29;20044;-82
2022/03/31 01:40:16;;;;;;;6.18;2.03;;;2.40;99.90;;;;;;4915489;29;20048;-82
2022/03/31 01:42:45;;;;;;;;;;;2.40;99.90;;;;;;4915299;29;20055;-81
2022/03/31 01:45:14;;;;;;;6.90;2.00;;;2.40;99.90;;;;;;4911401;29;19923;-81
2022/03/31 01:47:41;;;;;;;6.93;2.78;;;2.70;99.90;;;;;;4881658;29;20140;-82
2022/03/31 01:50:09;;;;;;;7.00;2.28;;;2.40;99.90;;;;;;4896256;29;20060;-82
2022/03/31 01:52:35;;;;;;;5.47;2.17;;;2.40;99.90;;;;;;4895577;29;20083;-82
2022/03/31 01:55:01;;;;;;;;;;;3.00;99.90;;;;;;4899804;29;20056;-81
2022/03/31 01:57:26;;;;;;;9.27;2.50;;;2.70;99.90;;;;;;4895019;29;19927;-82
2022/03/31 01:59:52;;;;;;;8.85;3.42;;;2.40;99.90;;;;;;4865892;29;20048;-81
2022/03/31 02:02:18;;;;;;;7.90;3.00;;;2.40;99.90;;;;;;4899762;29;20116;-82
2022/03/31 02:04:44;;;;;;;7.90;3.30;;;2.40;99.90;;;;;;4915455;29;20055;-81
2022/03/31 02:07:10;;;;;;;9.77;3.63;;;2.40;99.90;;;;;;4915008;29;20106;-82
2022/03/31 02:09:36;;;;;;;11.60;4.45;;;2.40;99.90;;;;;;4915783;29;20060;-81
2022/03/31 02:12:03;;;;;;;9.73;3.80;;;2.70;99.90;;;;;;4913929;29;20521;-82
2022/03/31 02:14:28;;;;;;;8.85;3.65;;;2.40;99.90;;;;;;4915122;29;20056;-81
2022/03/31 02:16:55;;;;;;;9.93;4.22;;;2.40;99.90;;;;;;4900161;29;20372;-81
2022/03/31 02:19:21;;;;;;;11.43;4.68;;;2.40;99.90;;;;;;4898846;29;20048;-81
2022/03/31 02:21:47;;;;;;;;;;;2.40;99.90;;;;;;4896529;29;20045;-81
2022/03/31 02:24:14;;;;;;;8.82;4.45;;;2.50;99.90;;;;;;4896123;29;19924;-82
2022/03/31 02:26:41;;;;;;;12.07;4.65;;;2.50;99.90;;;;;;4888443;29;20052;-82
2022/03/31 02:29:07;;;;;;;13.25;5.88;;;3.20;99.90;;;;;;4899343;29;20060;-81
2022/03/31 02:31:33;;;;;;;12.88;6.28;;;3.30;99.90;;;;;;4896242;29;20063;-81
2022/03/31 02:33:58;;;;;;;13.88;5.78;;;2.60;99.90;;;;;;4901548;29;20490;-81
2022/03/31 02:36:28;;;;;;;10.07;5.18;;;2.50;99.90;;;;;;4914928;29;20055;-81
2022/03/31 02:38:54;;;;;;;10.13;4.72;;;2.50;99.90;;;;;;4914980;29;20122;-81
2022/03/31 02:41:20;;;;;;;10.40;4.38;;;3.20;99.90;;;;;;4914373;29;20059;-81
2022/03/31 02:43:45;;;;;;;14.13;4.85;;;2.60;99.90;;;;;;4898585;29;20062;-81
2022/03/31 02:46:12;;;;;;;11.93;4.88;;;2.60;99.90;;;;;;4898572;29;20052;-82
2022/03/31 02:48:37;;;;;;;10.43;5.20;;;2.20;99.90;;;;;;4895730;29;20115;-81
2022/03/31 02:51:03;;;;;;;9.68;4.50;;;2.60;99.90;;;;;;4865293;29;20071;-81
2022/03/31 02:56:13;;;;;;;10.57;5.15;;;3.30;99.90;;;;;;4900638;29;20111;-82
2022/03/31 02:58:39;;;;;;;10.25;5.40;;;2.90;99.90;;;;;;4913916;29;20052;-81
2022/03/31 03:01:05;;;;;;;9.43;4.63;;;2.90;99.90;;;;;;4915056;29;20054;-81
2022/03/31 03:03:32;;;;;;;9.95;4.97;;;2.50;99.90;;;;;;4897529;29;20067;-81
2022/03/31 03:05:58;;;;;;;8.70;4.53;;;2.70;99.90;;;;;;4914768;29;20052;-81
2022/03/31 03:08:27;;;;;;;11.52;4.70;;;3.10;99.90;;;;;;4881791;29;20619;-82
2022/03/31 03:10:53;;;;;;;9.10;4.80;;;2.50;99.90;;;;;;4880160;29;20139;-81
2022/03/31 03:13:19;;;;;;;7.60;3.97;;;2.90;99.90;;;;;;4894225;29;20490;-82
2022/03/31 03:15:46;;;;;;;13.88;5.70;;;2.50;99.90;;;;;;4880465;29;20094;-81
2022/03/31 03:18:11;;;;;;;9.82;4.80;;;2.50;99.90;;;;;;4880210;29;20048;-82
2022/03/31 03:20:37;;;;;;;16.38;5.55;;;2.40;99.90;;;;;;4878898;29;20048;-82
2022/03/31 03:23:03;;;;;;;9.20;5.40;;;2.40;99.90;;;;;;4911813;29;20048;-81
2022/03/31 03:25:29;;;;;;;11.27;5.47;;;2.40;99.90;;;;;;4898167;29;20058;-82
2022/03/31 03:27:54;;;;;;;11.80;5.82;;;2.40;99.90;;;;;;4897488;29;20144;-81
2022/03/31 03:30:21;;;;;;;9.80;5.80;;;2.40;99.90;;;;;;4895473;29;20080;-82
2022/03/31 03:32:47;;;;;;;12.27;5.15;;;2.40;99.90;;;;;;4899192;29;20459;-81
2022/03/31 03:35:14;;;;;;;9.98;5.53;;;2.40;99.90;;;;;;4894887;29;20045;-82
2022/03/31 03:37:42;;;;;;;10.38;5.88;;;2.40;99.90;;;;;;4894689;29;20092;-82
2022/03/31 03:40:09;;;;;;;11.77;5.53;;;2.50;99.90;;;;;;4879338;29;20139;-82
2022/03/31 03:42:38;;;;;;;10.43;5.30;;;2.50;99.90;;;;;;4877769;29;20062;-82
2022/03/31 03:45:04;;;;;;;14.88;6.85;;;2.50;99.90;;;;;;4895316;29;20048;-82
2022/03/31 03:47:31;;;;;;;11.75;5.78;;;2.50;99.90;;;;;;4894300;29;20064;-82
2022/03/31 03:49:56;;;;;;;13.00;6.60;;;2.50;99.90;;;;;;4894694;29;20573;-82
2022/03/31 03:52:23;;;;;;;12.07;5.72;;;2.50;99.90;;;;;;4880411;29;20052;-81
2022/03/31 03:54:50;;;;;;;14.60;6.88;;;2.80;99.90;;;;;;4904065;29;20683;-81
2022/03/31 03:57:15;;;;;;;;;;;2.80;99.90;;;;;;4878734;29;20052;-82
2022/03/31 03:59:41;;;;;;;13.63;6.43;;;2.60;99.90;;;;;;4878768;29;19978;-82
2022/03/31 04:02:07;;;;;;;11.68;5.93;;;2.40;99.90;;;;;;4912547;29;20095;-82
2022/03/31 04:04:33;;;;;;;13.32;6.40;;;2.50;99.90;;;;;;4912853;29;20044;-81
2022/03/31 04:06:59;;;;;;;13.18;6.95;;;2.40;99.90;;;;;;4911656;29;20052;-82
2022/03/31 04:09:25;;;;;;;12.70;7.40;;;3.30;99.90;;;;;;4878705;29;20143;-82
2022/03/31 04:11:51;;;;;;;16.85;7.18;;;2.50;99.90;;;;;;4893235;29;20064;-82
2022/03/31 04:14:18;;;;;;;16.73;7.18;;;2.50;99.90;;;;;;4898333;29;20052;-82
2022/03/31 04:16:44;;;;;;;14.60;7.75;;;2.50;99.90;;;;;;4894004;29;20055;-82
2022/03/31 04:19:10;;;;;;;18.65;7.97;;;2.50;99.90;;;;;;4895113;29;20044;-82
2022/03/31 04:21:36;;;;;;;14.40;6.75;;;2.50;99.90;;;;;;4897319;29;20087;-82
2022/03/31 04:24:03;;;;;;;13.30;6.97;;;2.50;99.90;;;;;;4897625;29;20052;-82
2022/03/31 04:26:29;;;;;;;14.63;6.47;;;2.50;99.90;;;;;;4912682;29;20135;-82
2022/03/31 04:28:55;;;;;;;14.30;7.35;;;3.20;99.90;;;;;;4910810;29;20083;-81
2022/03/31 04:31:21;;;;;;;13.65;7.78;;;2.50;99.90;;;;;;4863635;29;20084;-82
2022/03/31 04:33:47;;;;;;;14.63;7.90;;;3.30;99.90;;;;;;4893978;29;20100;-81
2022/03/31 04:36:12;;;;;;;13.80;7.90;;;2.40;99.90;;;;;;4879120;29;20056;-81
2022/03/31 04:38:38;;;;;;;15.82;8.52;;;2.40;99.90;;;;;;4893678;29;20135;-81
2022/03/31 04:41:04;;;;;;;15.88;8.77;;;2.40;99.90;;;;;;4894222;29;20074;-82
2022/03/31 04:43:30;;;;;;;15.57;8.25;;;3.10;99.90;;;;;;4893015;29;20081;-82
2022/03/31 04:45:56;;;;;;;14.48;8.75;;;2.40;99.90;;;;;;4886252;29;20450;-82
2022/03/31 04:48:22;;;;;;;16.00;8.55;;;2.40;99.90;;;;;;4911463;29;20056;-82
2022/03/31 04:50:48;;;;;;;17.13;9.10;;;2.40;99.90;;;;;;4912821;29;20055;-81
2022/03/31 04:53:14;;;;;;;15.43;8.82;;;2.50;99.90;;;;;;4913319;29;20478;-81
2022/03/31 04:55:41;;;;;;;15.35;8.55;;;2.60;99.90;;;;;;4912693;29;20056;-82
2022/03/31 04:58:07;;;;;;;15.55;8.00;;;2.40;99.90;;;;;;4911993;29;20084;-82
2022/03/31 05:00:33;;;;;;;15.38;8.43;;;2.30;99.90;;;;;;4912711;29;20482;-81
2022/03/31 05:02:59;;;;;;;;;;;2.30;99.90;;;;;;4898258;29;20119;-81
2022/03/31 05:05:26;;;;;;;14.88;7.60;;;2.40;99.90;;;;;;4893533;29;20377;-82
2022/03/31 05:07:51;;;;;;;14.13;7.78;;;2.40;99.90;;;;;;4883942;29;20044;-81
2022/03/31 05:10:18;;;;;;;14.48;8.23;;;2.30;99.90;;;;;;4894242;29;20060;-81
2022/03/31 05:12:44;;;;;;;16.20;9.13;;;2.30;99.90;;;;;;4909487;29;20073;-81
2022/03/31 05:15:11;;;;;;;19.15;9.10;;;3.00;99.90;;;;;;4913172;29;20157;-81
2022/03/31 05:17:37;;;;;;;15.82;8.52;;;2.30;99.90;;;;;;4912602;29;20087;-82
2022/03/31 05:20:09;;;;;;;15.45;8.60;;;2.30;99.90;;;;;;4881224;29;20048;-82
2022/03/31 05:22:36;;;;;;;15.52;8.73;;;2.30;99.90;;;;;;4896593;29;20060;-81
2022/03/31 05:25:02;;;;;;;16.00;8.52;;;2.40;99.90;;;;;;4912310;29;20055;-82
2022/03/31 05:27:28;;;;;;;14.35;8.55;;;2.40;99.90;;;;;;4913029;29;20075;-81
2022/03/31 05:29:54;;;;;;;17.73;9.90;;;2.90;99.90;;;;;;4891399;29;20706;-81
2022/03/31 05:32:20;;;;;;;16.75;9.77;;;2.30;99.90;;;;;;4882085;29;20135;-82
2022/03/31 05:34:46;;;;;;;16.65;9.18;;;2.40;99.90;;;;;;4881179;29;20072;-81
2022/03/31 05:37:12;;;;;;;16.02;9.18;;;2.90;99.90;;;;;;4898297;29;20114;-82
2022/03/31 05:39:37;;;;;;;17.40;8.18;;;2.40;99.90;;;;;;4884142;29;20056;-82
2022/03/31 05:42:04;;;;;;;12.77;7.82;;;2.40;99.90;;;;;;4914872;29;20392;-81
2022/03/31 05:44:30;;;;;;;;;;;2.40;99.90;;;;;;4916133;29;20063;-82
2022/03/31 05:46:55;;;;;;;17.33;8.98;;;2.40;99.90;;;;;;4900642;29;19947;-81
2022/03/31 05:49:21;;;;;;;14.70;8.68;;;2.60;99.90;;;;;;4896057;29;20056;-82
2022/03/31 05:51:47;;;;;;;14.73;9.13;;;3.10;99.90;;;;;;4903916;29;20210;-82
2022/03/31 05:54:12;;;;;;;15.57;8.80;;;2.50;99.90;;;;;;4900333;29;20135;-81
2022/03/31 05:56:38;;;;;;;14.48;8.32;;;2.50;99.90;;;;;;4889640;29;20080;-82
2022/03/31 05:59:05;;;;;;;13.23;7.75;;;2.40;99.90;;;;;;4880993;29;20182;-81
2022/03/31 06:01:31;;;;;;;14.93;8.90;;;3.30;99.90;;;;;;4881041;29;20063;-82
2022/03/31 06:03:57;;;;;;;15.35;8.82;;;2.80;99.90;;;;;;4896646;29;20048;-81
2022/03/31 06:06:23;;;;;;;16.70;9.20;;;2.40;99.90;;;;;;4896995;29;20052;-81
2022/03/31 06:08:49;;;;;;;15.07;8.95;;;2.30;99.90;;;;;;4909123;29;20609;-81
2022/03/31 06:11:15;;;;;;;14.32;8.48;;;2.50;99.90;;;;;;4898331;29;20094;-81
2022/03/31 06:13:41;;;;;;;14.63;8.70;;;2.50;99.90;;;;;;4907417;29;20064;-82
2022/03/31 06:16:07;;;;;;;16.05;9.25;;;2.60;99.90;;;;;;4915804;29;20147;-82
2022/03/31 06:18:33;;;;;;;15.93;9.05;;;2.60;99.90;;;;;;4914568;29;20486;-81
2022/03/31 06:20:58;;;;;;;18.80;9.48;;;2.60;99.90;;;;;;4915565;29;20513;-82
2022/03/31 06:23:25;;;;;;;14.93;8.55;;;2.60;99.90;;;;;;4865655;29;20052;-82
2022/03/31 06:25:52;;;;;;;16.10;9.23;;;2.70;99.90;;;;;;4895946;29;20057;-81
2022/03/31 06:28:18;;;;;;;16.85;9.70;;;2.60;99.90;;;;;;4895552;29;20056;-82
2022/03/31 06:30:47;;;;;;;15.80;9.32;;;2.60;99.90;;;;;;4879715;29;20060;-82
2022/03/31 06:33:15;;;;;;;18.08;10.77;;;2.60;99.90;;;;;;4902153;29;20052;-81
2022/03/31 06:35:41;;;;;;;17.63;10.32;;;4.10;99.90;;;;;;4879902;29;20562;-81
2022/03/31 06:38:08;;;;;;;19.08;10.38;;;3.30;99.90;;;;;;4879865;29;20192;-82
2022/03/31 06:40:37;;;;;;;17.13;10.23;;;2.70;99.90;;;;;;4864989;29;20064;-81
2022/03/31 06:43:04;;;;;;;16.95;9.80;;;3.30;99.90;;;;;;4894917;29;20052;-81
2022/03/31 06:45:31;;;;;;;16.20;9.00;;;2.80;99.90;;;;;;4890008;29;20063;-83
2022/03/31 06:47:58;;;;;;;18.67;9.98;;;2.70;99.90;;;;;;4914243;29;20056;-81
2022/03/31 06:50:24;;;;;;;19.95;10.95;;;2.80;99.90;;;;;;4896832;29;20075;-82
2022/03/31 06:52:50;;;;;;;19.73;11.05;;;2.70;99.90;;;;;;4884617;29;20052;-81
2022/03/31 06:55:16;;;;;;;18.15;10.30;;;2.70;99.90;;;;;;4914977;29;20048;-81
2022/03/31 06:57:42;;;;;;;;;;;2.80;99.90;;;;;;4894623;29;20052;-81
2022/03/31 07:00:08;;;;;;;19.50;10.68;;;2.80;99.90;;;;;;4895847;29;19927;-81
2022/03/31 07:02:34;;;;;;;19.90;11.48;;;2.80;99.90;;;;;;4883939;29;20047;-83
2022/03/31 07:05:00;;;;;;;19.30;10.90;;;2.80;99.90;;;;;;4913997;29;20103;-82
2022/03/31 07:07:26;;;;;;;19.27;10.73;;;2.90;99.90;;;;;;4895961;29;20138;-82
2022/03/31 07:09:52;;;;;;;18.27;10.75;;;2.90;99.90;;;;;;4898371;29;20062;-82
2022/03/31 07:12:18;;;;;;;19.90;11.60;;;3.20;99.90;;;;;;4912672;29;20060;-82
2022/03/31 07:14:44;;;;;;;19.83;11.15;;;3.00;99.90;;;;;;4906033;29;20055;-82
2022/03/31 07:17:12;;;;;;;20.40;11.43;;;3.50;99.90;;;;;;4880571;29;20048;-82
2022/03/31 07:19:37;;;;;;;19.10;11.40;;;3.20;99.90;;;;;;4913300;29;20058;-82
2022/03/31 07:22:03;;;;;;;21.77;11.63;;;3.20;99.90;;;;;;4914161;29;20048;-82
2022/03/31 07:24:29;;;;;;;19.63;11.30;;;3.30;99.90;;;;;;4914120;29;20052;-82
2022/03/31 07:26:55;;;;;;;18.08;10.93;;;3.40;99.90;;;;;;4892796;29;20045;-83
2022/03/31 07:29:21;;;;;;;19.33;10.95;;;3.40;99.90;;;;;;4895881;29;20128;-82
2022/03/31 07:31:47;;;;;;;17.83;11.25;;;3.50;99.90;;;;;;4882576;29;20083;-82
2022/03/31 07:34:13;;;;;;;17.77;10.40;;;3.50;99.90;;;;;;4897413;29;20131;-82
2022/03/31 07:36:39;;;;;;;17.83;10.65;;;3.60;99.90;;;;;;4909802;29;20048;-82
2022/03/31 07:39:05;;;;;;;17.25;10.25;;;3.70;99.90;;;;;;4879425;29;20052;-82
2022/03/31 07:41:30;;;;;;;18.20;10.60;;;4.30;99.90;;;;;;4879420;29;20049;-82
2022/03/31 07:43:56;;;;;;;19.70;10.70;;;3.50;99.90;;;;;;4893839;29;20045;-82
2022/03/31 07:46:22;;;;;;;21.88;10.73;;;3.50;99.90;;;;;;4895347;29;20045;-81
2022/03/31 07:48:47;;;;;;;18.55;10.63;;;3.40;99.90;;;;;;4893679;29;20064;-82
2022/03/31 07:51:13;;;;;;;21.90;12.32;;;3.40;99.90;;;;;;4880952;29;20055;-82
2022/03/31 07:53:39;;;;;;;21.65;11.95;;;3.30;99.90;;;;;;4893970;29;20052;-81
2022/03/31 07:56:05;;;;;;;20.95;11.93;;;3.40;99.90;;;;;;4903080;29;20402;-81
2022/03/31 07:58:34;;;;;;;21.67;11.85;;;3.30;99.90;;;;;;4897285;29;20458;-81
2022/03/31 08:01:00;;;;;;;23.42;12.93;;;3.30;99.90;;;;;;4897535;29;20478;-82
2022/03/31 08:03:26;;;;;;;24.73;13.18;;;4.00;99.90;;;;;;4894179;29;20157;-82
2022/03/31 08:05:52;;;;;;;24.80;13.25;;;3.30;99.90;;;;;;4894246;29;20139;-82
2022/03/31 08:08:19;;;;;;;25.52;13.73;;;3.30;99.90;;;;;;4886585;29;20095;-82
2022/03/31 08:10:44;;;;;;;24.17;13.20;;;4.00;99.90;;;;;;4911783;29;20052;-81
2022/03/31 08:13:10;;;;;;;26.90;13.48;;;3.40;99.90;;;;;;4879826;29;20541;-81
2022/03/31 08:15:37;;;;;;;22.75;13.07;;;3.90;99.90;;;;;;4911131;29;20048;-81
2022/03/31 08:18:03;;;;;;;27.13;14.45;;;3.40;99.90;;;;;;4912804;29;20079;-82
2022/03/31 08:20:28;;;;;;;;;;;3.50;99.90;;;;;;4897742;29;20048;-82
2022/03/31 08:22:55;;;;;;;25.83;13.00;;;3.50;99.90;;;;;;4912682;29;20301;-82
2022/03/31 08:25:21;;;;;;;22.15;11.80;;;3.60;99.90;;;;;;4897602;29;20088;-82
2022/03/31 08:27:47;;;;;;;20.67;12.07;;;3.70;99.90;;;;;;4911816;29;20079;-82
2022/03/31 08:30:19;;;;;;;20.67;12.07;;;3.70;99.90;;;;;;4891741;29;20049;-82
2022/03/31 08:32:46;;;;;;;23.08;12.80;;;3.70;99.90;;;;;;4902925;29;20052;-82
2022/03/31 08:35:14;;;;;;;20.70;10.73;;;3.80;99.90;;;;;;4910700;29;20052;-83
2022/03/31 08:37:40;;;;;;;20.67;10.95;;;3.90;99.90;;;;;;4896014;29;20526;-83
2022/03/31 08:40:09;;;;;;;21.48;11.73;;;4.00;99.90;;;;;;4901137;29;20053;-82
2022/03/31 08:42:35;;;;;;;17.20;10.38;;;3.80;99.90;;;;;;4864223;29;20064;-82
2022/03/31 08:45:01;;;;;;;18.85;10.80;;;3.90;99.90;;;;;;4908251;29;20478;-82
2022/03/31 08:47:27;;;;;;;17.27;10.13;;;4.20;99.90;;;;;;4894526;29;20044;-82
2022/03/31 08:49:57;;;;;;;17.30;9.85;;;4.30;99.90;;;;;;4878349;29;20643;-82
2022/03/31 08:52:23;;;;;;;18.38;10.48;;;3.90;99.90;;;;;;4894041;29;20057;-83
2022/03/31 08:54:50;;;;;;;17.98;10.63;;;4.30;99.90;;;;;;4902603;29;20048;-82
2022/03/31 08:57:16;;;;;;;;;;;3.90;99.90;;;;;;4897966;29;20387;-82
2022/03/31 08:59:42;;;;;;;15.63;9.05;;;4.50;99.90;;;;;;4911054;29;19927;-82
2022/03/31 09:02:09;;;;;;;16.35;9.30;;;3.70;99.90;;;;;;4895997;29;20056;-82
2022/03/31 09:04:35;;;;;;;16.50;9.93;;;3.90;99.90;;;;;;4903742;29;20103;-81
2022/03/31 09:07:08;;;;;;;14.57;8.82;;;3.90;99.90;;;;;;4881492;29;20402;-82
2022/03/31 09:09:47;;;;;;;10.93;5.90;;;3.90;99.90;;;;;;4897916;29;20135;-82
2022/03/31 09:12:13;;;;;;;8.68;5.28;;;3.90;99.90;;;;;;4896657;29;20137;-82
2022/03/31 09:14:39;;;;;;;11.25;6.30;;;4.20;99.90;;;;;;4905324;29;20383;-83
2022/03/31 09:17:12;;;;;;;9.95;6.28;;;3.80;99.90;;;;;;4897840;29;20064;-82
2022/03/31 09:19:38;;;;;;;8.98;5.50;;;4.00;99.90;;;;;;4897164;29;20581;-82
2022/03/31 09:22:05;;;;;;;8.68;5.32;;;3.90;99.90;;;;;;4889527;29;20064;-83
2022/03/31 09:24:31;;;;;;;;;;;3.90;99.90;;;;;;4884377;29;20052;-85
2022/03/31 09:26:59;;;;;;;8.33;5.00;;;3.90;99.90;;;;;;4898677;29;19927;-85
2022/03/31 09:29:27;;;;;;;8.25;5.05;;;4.80;99.90;;;;;;4900515;29;20558;-85
2022/03/31 09:32:07;;;;;;;8.43;5.07;;;5.20;99.90;;;;;;4900373;29;20150;-84
2022/03/31 09:34:42;;;;;;;7.40;4.50;;;4.00;99.90;;;;;;4900318;29;20048;-85
2022/03/31 09:37:08;;;;;;;8.32;5.20;;;4.00;99.90;;;;;;4915588;29;20048;-86
2022/03/31 09:39:33;;;;;;;9.23;5.40;;;3.90;99.90;;;;;;4916141;29;20100;-86
2022/03/31 09:41:59;;;;;;;9.00;4.53;;;4.20;99.90;;;;;;4899625;29;20482;-86
2022/03/31 09:44:25;;;;;;;6.55;3.90;;;4.70;99.90;;;;;;4900214;29;20053;-86
2022/03/31 09:46:52;;;;;;;6.38;3.80;;;4.40;99.90;;;;;;4897799;29;20084;-86
2022/03/31 09:49:26;;;;;;;6.72;4.18;;;3.70;99.90;;;;;;4902326;29;20123;-85
2022/03/31 09:52:07;;;;;;;7.63;4.57;;;3.30;99.90;;;;;;4892556;29;20076;-86
2022/03/31 09:54:34;;;;;;;8.27;4.53;;;4.40;99.90;;;;;;4895302;29;20147;-85
2022/03/31 09:57:02;;;;;;;5.85;3.70;;;3.20;99.90;;;;;;4904558;29;20050;-86
2022/03/31 09:59:33;;;;;;;5.97;3.50;;;3.20;99.90;;;;;;4894756;29;20167;-86
2022/03/31 10:01:59;;;;;;;6.45;3.65;;;3.10;99.90;;;;;;4905317;29;20112;-85
2022/03/31 10:04:26;;;;;;;7.18;3.95;;;3.10;99.90;;;;;;4903572;29;20052;-86
2022/03/31 10:06:52;;;;;;;;;;;4.00;99.90;;;;;;4894702;29;20054;-86
2022/03/31 10:09:19;;;;;;;6.50;4.05;;;3.20;99.90;;;;;;4896164;29;19938;-86
2022/03/31 10:11:48;;;;;;;6.63;3.60;;;3.00;99.90;;;;;;4886483;29;20143;-86
2022/03/31 10:14:35;;;;;;;7.45;4.10;;;3.50;99.90;;;;;;4881807;29;20141;-86
2022/03/31 10:17:11;;;;;;;5.85;3.53;;;2.90;99.90;;;;;;4886950;29;20040;-86
2022/03/31 10:19:44;;;;;;;6.00;3.53;;;2.90;99.90;;;;;;4886418;29;20049;-86
2022/03/31 10:25:16;;;;;;;5.68;3.13;;;2.80;99.90;;;;;;4896268;29;20115;-85
2022/03/31 10:27:48;;;;;;;4.80;3.00;;;3.40;99.90;;;;;;4895460;29;20088;-86
2022/03/31 10:30:16;;;;;;;5.25;2.80;;;2.60;99.90;;;;;;4894093;29;20049;-85
2022/03/31 10:32:52;;;;;;;5.13;3.22;;;2.50;99.90;;;;;;4894352;29;20064;-85
2022/03/31 10:35:30;;;;;;;4.88;2.88;;;3.40;99.90;;;;;;4897619;29;21537;-85
2022/03/31 10:37:57;;;;;;;5.03;3.00;;;2.30;99.90;;;;;;4880605;29;20111;-86
2022/03/31 10:40:35;;;;;;;4.47;2.80;;;2.70;99.90;;;;;;4899464;29;20047;-82
2022/03/31 10:43:02;;;;;;;5.63;3.03;;;2.20;99.90;;;;;;4895788;29;20085;-84
2022/03/31 10:45:36;;;;;;;4.78;3.00;;;2.30;99.90;;;;;;4885259;29;20056;-83
2022/03/31 10:48:17;;;;;;;6.45;3.75;;;2.10;99.90;;;;;;4895721;29;20059;-83
2022/03/31 10:50:44;;;;;;;6.10;3.35;;;2.00;99.90;;;;;;4896544;29;20128;-83
2022/03/31 10:53:10;;;;;;;7.03;3.85;;;2.10;99.90;;;;;;4897510;29;20661;-83
2022/03/31 10:55:42;;;;;;;5.97;3.50;;;2.10;99.90;;;;;;4881186;29;20124;-83
2022/03/31 10:58:30;;;;;;;6.47;3.70;;;2.50;99.90;;;;;;4892044;29;20063;-83
2022/03/31 11:00:57;;;;;;;7.18;4.18;;;2.80;99.90;;;;;;4893028;29;20511;-83
2022/03/31 11:03:24;;;;;;;6.38;4.20;;;2.00;99.90;;;;;;4894249;29;20040;-83
2022/03/31 11:05:50;;;;;;;8.15;4.43;;;2.00;99.90;;;;;;4893963;29;20058;-84
2022/03/31 11:08:20;;;;;;;7.50;3.97;;;2.00;99.90;;;;;;4880120;29;20507;-82
2022/03/31 11:10:49;;;;;;;7.85;4.30;;;2.10;99.90;;;;;;4895410;29;20059;-83
2022/03/31 11:13:16;;;;;;;8.43;4.45;;;2.40;99.90;;;;;;4894446;29;20060;-83
2022/03/31 11:15:46;;;;;;;8.45;4.80;;;2.30;99.90;;;;;;4881873;29;20048;-83
2022/03/31 11:18:11;;;;;;;8.40;4.63;;;2.40;99.90;;;;;;4893362;29;20561;-82
2022/03/31 11:20:37;;;;;;;9.82;5.20;;;2.60;99.90;;;;;;4883286;29;20127;-83
2022/03/31 11:23:06;;;;;;;8.88;5.30;;;3.30;99.90;;;;;;4897666;29;20052;-85
2022/03/31 11:25:34;;;;;;;9.80;5.90;;;2.90;99.90;;;;;;4898439;29;20486;-82
2022/03/31 11:28:08;;;;;;;8.88;5.32;;;3.00;99.90;;;;;;4912605;29;20067;-82
2022/03/31 11:30:33;;;;;;;8.50;4.78;;;3.10;99.90;;;;;;4914231;29;20059;-83
2022/03/31 11:33:00;;;;;;;10.60;5.63;;;3.20;99.90;;;;;;4913138;29;20052;-83
2022/03/31 11:35:27;;;;;;;9.60;5.18;;;3.10;99.90;;;;;;4908942;29;20114;-83
2022/03/31 11:38:01;;;;;;;8.68;4.90;;;3.20;99.90;;;;;;4909072;29;20052;-83
2022/03/31 11:40:36;;;;;;;9.80;5.65;;;4.10;99.90;;;;;;4894870;29;20117;-83
2022/03/31 11:43:04;;;;;;;9.98;5.75;;;3.30;99.90;;;;;;4906963;29;20061;-83
2022/03/31 11:45:42;;;;;;;12.30;5.88;;;3.30;99.90;;;;;;4880998;29;20052;-83
2022/03/31 11:48:19;;;;;;;9.95;6.13;;;3.30;99.90;;;;;;4895446;29;20105;-83
2022/03/31 11:50:51;;;;;;;11.75;6.43;;;3.30;99.90;;;;;;4895220;29;20076;-83
2022/03/31 11:53:20;;;;;;;11.70;6.60;;;3.40;99.90;;;;;;4904378;29;20410;-82
2022/03/31 11:55:59;;;;;;;12.35;6.80;;;3.40;99.90;;;;;;4892999;29;20044;-83
2022/03/31 11:58:27;;;;;;;12.32;7.22;;;3.40;99.90;;;;;;4891775;29;20052;-83
2022/03/31 12:00:56;;;;;;;12.40;7.63;;;3.50;99.90;;;;;;4897159;29;20573;-84
2022/03/31 12:03:22;;;;;;;13.63;7.55;;;3.50;99.90;;;;;;4893701;29;20127;-83
2022/03/31 12:05:59;;;;;;;15.30;9.00;;;3.60;99.90;;;;;;4898705;29;20052;-83
2022/03/31 12:08:25;;;;;;;;;;;4.00;99.90;;;;;;4894013;29;20086;-83
2022/03/31 12:10:51;;;;;;;15.23;8.65;;;3.70;99.90;;;;;;4878071;29;19924;-83
2022/03/31 12:13:18;;;;;;;;;;;3.80;99.90;;;;;;4897323;29;20107;-83
2022/03/31 12:15:44;;;;;;;19.90;10.00;;;4.20;99.90;;;;;;4893756;29;19979;-83
2022/03/31 12:18:13;;;;;;;19.90;10.52;;;3.80;99.90;;;;;;4892881;29;20048;-83
2022/03/31 12:20:40;;;;;;;20.02;11.00;;;3.90;99.90;;;;;;4909243;29;20099;-83
2022/03/31 12:23:23;;;;;;;23.35;11.52;;;3.90;99.90;;;;;;4903226;29;20051;-83
2022/03/31 12:25:50;;;;;;;21.50;11.70;;;4.50;99.90;;;;;;4913668;29;20087;-82
2022/03/31 12:28:23;;;;;;;20.33;11.38;;;4.00;99.90;;;;;;4879324;29;20052;-83
2022/03/31 12:30:56;;;;;;;21.38;11.90;;;4.00;99.90;;;;;;4886413;29;20095;-82
2022/03/31 12:33:36;;;;;;;24.23;12.25;;;3.90;99.90;;;;;;4890695;29;20044;-83
2022/03/31 12:36:07;;;;;;;23.30;12.00;;;3.90;99.90;;;;;;4881671;29;20056;-82
2022/03/31 12:38:51;;;;;;;26.30;13.18;;;3.90;99.90;;;;;;4897763;29;20513;-82
2022/03/31 12:41:20;;;;;;;27.85;15.07;;;3.80;99.90;;;;;;4895156;29;20052;-83
2022/03/31 12:44:01;;;;;;;31.88;15.95;;;4.00;99.90;;;;;;4879718;29;20083;-83
2022/03/31 12:46:30;;;;;;;34.72;17.00;;;4.00;99.90;;;;;;4893527;29;20095;-83
2022/03/31 12:49:00;;;;;;;35.45;18.55;;;4.10;99.90;;;;;;4896495;29;20056;-82
2022/03/31 12:51:26;;;;;;;36.28;19.30;;;4.00;99.90;;;;;;4894729;29;20087;-83
2022/03/31 12:53:52;;;;;;;;;;;4.60;99.90;;;;;;4883861;29;20187;-83
2022/03/31 12:56:26;;;;;;;38.17;19.63;;;4.30;99.90;;;;;;4897492;29;19931;-83
2022/03/31 12:58:53;;;;;;;40.42;19.70;;;4.80;99.90;;;;;;4891876;29;20048;-83
2022/03/31 13:01:20;;;;;;;37.72;18.95;;;4.40;99.90;;;;;;4879627;29;20052;-83